Time;durP1;ratioP1;P1;durP2;ratioP2;P2;SDS_P1;SDS_P2;PMS_P1;PMS_P2;Temp;Humidity;BMP_temperature;BMP_pressure;BME280_temperature;BME280_humidity;BME280_pressure;Samples;Min_cycle;Max_cycle;Signal;HPM_P1;HPM_P2
2022/09/01 00:01:41;;;;;;;15.02;13.73;;;;;;;20.28;62.71;100623.56;5067678;28;20139;-76
2022/09/01 00:04:12;;;;;;;13.48;12.25;;;;;;;20.31;62.94;100616.41;5070290;28;20127;-77
2022/09/01 00:06:39;;;;;;;14.10;12.90;;;;;;;20.31;62.94;100620.06;5073978;28;20055;-78
2022/09/01 00:09:10;;;;;;;13.55;12.50;;;;;;;20.30;62.96;100621.22;5084579;28;20143;-76
2022/09/01 00:11:39;;;;;;;16.55;15.05;;;;;;;20.37;62.99;100617.81;5073680;28;20136;-76
2022/09/01 00:14:08;;;;;;;13.93;12.68;;;;;;;20.36;62.99;100613.34;5070255;28;20110;-76
2022/09/01 00:16:56;;;;;;;14.20;12.35;;;;;;;20.37;63.01;100632.00;5068732;28;20056;-77
2022/09/01 00:19:24;;;;;;;13.80;12.60;;;;;;;20.26;62.90;100597.56;5069581;28;20119;-77
2022/09/01 00:21:51;;;;;;;13.98;12.68;;;;;;;20.29;63.16;100607.38;5068419;28;20132;-75
2022/09/01 00:24:19;;;;;;;13.07;11.98;;;;;;;20.29;63.14;100596.88;5073859;28;20040;-76
2022/09/01 00:26:46;;;;;;;13.88;12.63;;;;;;;20.21;63.07;100586.44;5070851;28;20076;-75
2022/09/01 00:29:14;;;;;;;12.75;11.57;;;;;;;20.42;63.00;100599.78;5074970;28;20044;-77
2022/09/01 00:31:42;;;;;;;14.13;13.15;;;;;;;20.41;63.05;100610.31;5073947;28;20207;-76
2022/09/01 00:34:09;;;;;;;13.68;12.35;;;;;;;20.42;62.91;100606.28;5074121;28;20079;-76
2022/09/01 00:36:36;;;;;;;12.75;11.60;;;;;;;20.24;62.85;100574.41;5072053;28;20113;-76
2022/09/01 00:39:04;;;;;;;13.13;12.07;;;;;;;20.28;63.07;100583.88;5073931;28;20132;-76
2022/09/01 00:41:34;;;;;;;16.58;13.07;;;;;;;20.31;63.06;100582.34;5071243;28;20045;-76
2022/09/01 00:44:05;;;;;;;12.82;11.57;;;;;;;20.31;63.16;100580.34;5075619;28;20076;-76
2022/09/01 00:46:35;;;;;;;12.45;11.38;;;;;;;20.29;63.17;100579.03;5069669;28;20076;-76
2022/09/01 00:49:34;;;;;;;12.00;11.00;;;;;;;20.40;62.99;100585.09;5065843;28;20051;-77
2022/09/01 00:52:06;;;;;;;12.57;10.73;;;;;;;20.38;62.98;100582.63;5070827;28;20424;-76
2022/09/01 00:54:39;;;;;;;12.27;11.32;;;;;;;20.34;62.95;100564.63;5079482;28;20084;-76
2022/09/01 00:57:07;;;;;;;12.32;11.27;;;;;;;20.43;62.88;100576.72;5067410;28;20137;-75
2022/09/01 00:59:40;;;;;;;11.70;10.52;;;;;;;20.25;62.91;100553.38;5071253;28;20135;-76
2022/09/01 01:02:09;;;;;;;11.02;10.05;;;;;;;20.04;62.92;100533.53;5076328;28;20080;-75
2022/09/01 01:04:37;;;;;;;11.75;10.85;;;;;;;20.30;62.98;100575.84;5063772;28;20044;-75
2022/09/01 01:07:05;;;;;;;11.35;10.40;;;;;;;20.35;63.05;100572.81;5071700;28;20140;-76
2022/09/01 01:09:37;;;;;;;12.00;11.02;;;;;;;20.01;63.33;100539.06;5069705;28;20127;-76
2022/09/01 01:12:05;;;;;;;12.05;11.15;;;;;;;19.98;63.65;100545.41;5067914;28;20083;-76
2022/09/01 01:14:35;;;;;;;12.68;11.20;;;;;;;20.03;63.72;100551.72;5072136;28;20143;-75
2022/09/01 01:17:02;;;;;;;12.40;11.35;;;;;;;20.13;63.32;100559.78;5069412;28;20102;-76
2022/09/01 01:23:04;;;;;;;11.95;10.85;;;;;;;19.95;63.63;100569.59;5071982;28;20048;-77
2022/09/01 01:25:39;;;;;;;12.13;11.15;;;;;;;19.95;63.63;100546.91;5068944;28;20124;-77
2022/09/01 01:28:13;;;;;;;12.38;11.48;;;;;;;19.94;63.81;100558.63;5065028;28;20057;-78
2022/09/01 01:30:45;;;;;;;12.10;11.20;;;;;;;19.79;63.66;100526.84;5061709;28;20056;-77
2022/09/01 01:33:14;;;;;;;12.63;11.73;;;;;;;19.84;63.67;100537.16;5070381;28;20056;-77
2022/09/01 01:35:42;;;;;;;12.90;11.90;;;;;;;20.05;63.52;100540.03;5067447;28;20063;-77
2022/09/01 01:38:10;;;;;;;12.52;11.57;;;;;;;20.04;63.33;100525.03;5066395;28;20084;-77
2022/09/01 01:40:37;;;;;;;12.23;11.25;;;;;;;20.14;63.05;100537.97;5066349;28;20417;-77
2022/09/01 01:43:05;;;;;;;12.93;11.80;;;;;;;20.17;63.47;100539.25;5062547;28;20083;-76
2022/09/01 01:45:32;;;;;;;12.65;11.70;;;;;;;20.04;63.47;100510.84;5070285;28;20123;-77
2022/09/01 01:48:07;;;;;;;12.32;11.35;;;;;;;20.02;63.51;100518.03;5069491;28;20595;-77
2022/09/01 01:50:35;;;;;;;12.65;11.68;;;;;;;20.17;63.38;100522.25;5063090;28;20823;-76
2022/09/01 01:53:07;;;;;;;12.18;11.25;;;;;;;20.20;63.25;100518.72;5071923;28;20045;-76
2022/09/01 01:55:39;;;;;;;14.05;12.45;;;;;;;20.11;63.43;100490.44;5060872;28;20053;-76
2022/09/01 01:58:06;;;;;;;13.27;12.05;;;;;;;20.18;63.05;100498.41;5068254;28;20076;-75
2022/09/01 02:00:33;;;;;;;13.00;11.80;;;;;;;20.15;63.11;100499.09;5070013;28;20143;-76
2022/09/01 02:03:00;;;;;;;11.80;10.90;;;;;;;20.16;63.29;100512.09;5068975;28;20128;-76
2022/09/01 02:05:31;;;;;;;12.27;11.35;;;;;;;20.13;63.34;100511.59;5069972;28;20051;-77
2022/09/01 02:08:03;;;;;;;12.93;11.85;;;;;;;20.09;63.27;100506.97;5057080;28;20139;-77
2022/09/01 02:10:52;;;;;;;11.77;10.68;;;;;;;20.00;63.65;100487.22;5069270;28;20134;-76
2022/09/01 02:13:29;;;;;;;11.63;10.82;;;;;;;20.07;63.02;100492.31;5072785;28;20087;-76
2022/09/01 02:16:06;;;;;;;12.45;11.25;;;;;;;19.94;63.11;100485.75;5070519;28;20062;-76
2022/09/01 02:18:40;;;;;;;14.00;12.60;;;;;;;19.99;63.33;100507.38;5069906;28;20076;-77
2022/09/01 02:21:10;;;;;;;12.48;11.38;;;;;;;19.96;63.57;100503.22;5067346;28;20132;-76
2022/09/01 02:23:43;;;;;;;12.27;11.18;;;;;;;19.91;63.33;100500.59;5068210;28;20051;-76
2022/09/01 02:26:10;;;;;;;11.45;10.55;;;;;;;19.81;63.38;100486.84;5059489;28;20144;-76
2022/09/01 02:28:48;;;;;;;12.68;11.48;;;;;;;19.69;63.10;100459.25;5068390;28;20110;-77
2022/09/01 02:31:22;;;;;;;12.82;11.70;;;;;;;19.98;63.17;100491.56;5063635;28;20060;-76
2022/09/01 02:33:49;;;;;;;12.27;11.23;;;;;;;19.93;63.04;100498.28;5065404;28;20150;-76
2022/09/01 02:36:18;;;;;;;12.80;10.95;;;;;;;19.96;63.18;100503.22;5060583;28;20066;-76
2022/09/01 02:38:47;;;;;;;12.70;11.65;;;;;;;19.98;63.57;100506.56;5070101;28;20049;-76
2022/09/01 02:41:23;;;;;;;11.95;10.88;;;;;;;19.82;63.72;100480.81;5066558;28;20051;-75
2022/09/01 02:43:51;;;;;;;12.18;11.27;;;;;;;20.07;63.63;100507.31;5070452;28;20412;-76
2022/09/01 02:46:22;;;;;;;12.30;11.32;;;;;;;20.06;64.09;100504.81;5068459;28;20044;-75
2022/09/01 02:48:50;;;;;;;11.68;10.65;;;;;;;20.15;63.81;100505.59;5069364;28;20098;-76
2022/09/01 02:51:21;;;;;;;13.18;11.98;;;;;;;20.01;63.64;100469.00;5068266;28;20044;-75
2022/09/01 02:53:51;;;;;;;10.75;9.95;;;;;;;20.15;63.93;100480.06;5063742;28;20126;-76
2022/09/01 02:56:23;;;;;;;12.98;11.77;;;;;;;20.18;63.70;100482.22;5063092;28;20052;-76
2022/09/01 02:58:52;;;;;;;11.23;10.27;;;;;;;20.06;63.88;100467.97;5068001;28;20524;-76
2022/09/01 03:01:24;;;;;;;11.43;10.45;;;;;;;20.10;63.70;100469.78;5067467;28;20076;-76
2022/09/01 03:03:54;;;;;;;11.50;10.60;;;;;;;20.09;63.70;100472.94;5066234;28;20501;-76
2022/09/01 03:06:22;;;;;;;11.52;9.93;;;;;;;20.03;64.13;100475.19;5067169;28;20132;-76
2022/09/01 03:08:55;;;;;;;11.57;10.67;;;;;;;20.04;64.00;100474.00;5064738;28;20153;-76
2022/09/01 03:11:23;;;;;;;11.20;10.10;;;;;;;20.10;64.10;100475.44;5062303;28;20376;-76
2022/09/01 03:13:51;;;;;;;10.98;10.18;;;;;;;19.93;63.96;100463.41;5069421;28;20080;-76
2022/09/01 03:16:18;;;;;;;12.05;10.95;;;;;;;20.03;63.86;100478.00;5068954;28;20040;-76
2022/09/01 03:18:45;;;;;;;12.10;11.20;;;;;;;19.94;63.72;100471.59;5062032;28;20135;-76
2022/09/01 03:21:15;;;;;;;11.68;10.77;;;;;;;19.84;64.15;100461.47;5066108;28;20132;-76
2022/09/01 03:23:44;;;;;;;10.73;10.02;;;;;;;19.62;64.28;100420.13;5070509;28;20059;-76
2022/09/01 03:26:12;;;;;;;11.82;10.93;;;;;;;19.92;63.88;100448.41;5061119;28;20488;-75
2022/09/01 03:28:40;;;;;;;11.85;10.93;;;;;;;20.06;63.83;100470.81;5066869;28;20461;-76
2022/09/01 03:31:07;;;;;;;12.70;11.43;;;;;;;19.96;63.41;100435.19;5068379;28;20574;-76
2022/09/01 03:33:35;;;;;;;11.90;10.90;;;;;;;20.09;63.68;100439.75;5065752;28;20141;-77
2022/09/01 03:36:04;;;;;;;11.48;10.50;;;;;;;20.16;63.56;100433.53;5063918;28;20052;-76
2022/09/01 03:38:42;;;;;;;11.60;10.75;;;;;;;20.28;63.61;100456.25;5069116;28;20407;-76
2022/09/01 03:41:11;;;;;;;11.20;10.13;;;;;;;20.28;63.71;100441.25;5061899;28;20071;-76
2022/09/01 03:43:39;;;;;;;11.27;10.48;;;;;;;20.30;63.67;100447.41;5063887;28;20059;-76
2022/09/01 03:46:21;;;;;;;11.50;10.27;;;;;;;20.28;63.63;100444.91;5058081;28;20056;-76
2022/09/01 03:48:57;;;;;;;11.05;10.13;;;;;;;20.33;63.45;100436.19;5069760;28;20127;-77
2022/09/01 03:51:25;;;;;;;11.77;10.60;;;;;;;20.35;63.64;100442.34;5057922;28;20064;-76
2022/09/01 03:53:53;;;;;;;18.63;10.63;;;;;;;20.40;63.45;100429.13;5070129;28;20127;-76
2022/09/01 03:56:23;;;;;;;12.18;11.07;;;;;;;20.50;63.25;100432.38;5071117;28;20053;-75
2022/09/01 03:58:50;;;;;;;11.85;10.52;;;;;;;20.63;62.86;100435.25;5062356;28;20619;-75
2022/09/01 04:01:18;;;;;;;13.43;10.80;;;;;;;20.79;62.54;100447.56;5060970;28;20091;-76
2022/09/01 04:03:50;;;;;;;11.13;10.23;;;;;;;20.70;62.76;100441.16;5068162;28;20052;-76
2022/09/01 04:06:22;;;;;;;10.57;9.77;;;;;;;20.51;62.44;100434.03;5064311;28;20090;-76
2022/09/01 04:09:01;;;;;;;12.48;11.38;;;;;;;20.46;62.76;100437.06;5068979;28;20114;-75
2022/09/01 04:11:29;;;;;;;11.00;10.13;;;;;;;20.26;63.00;100418.09;5067049;28;20055;-76
2022/09/01 04:13:57;;;;;;;11.82;10.82;;;;;;;20.39;62.73;100433.97;5067224;28;20489;-76
2022/09/01 04:19:25;;;;;;;9.98;9.38;;;;;;;20.30;62.93;100427.53;5062652;28;20053;-76
2022/09/01 04:21:58;;;;;;;10.10;9.30;;;;;;;20.32;63.09;100434.53;5066303;28;20048;-76
2022/09/01 04:24:27;;;;;;;10.63;9.82;;;;;;;20.31;63.05;100423.56;5063840;28;20052;-76
2022/09/01 04:26:57;;;;;;;10.63;9.93;;;;;;;20.33;63.20;100433.34;5066069;28;20083;-76
2022/09/01 04:29:28;;;;;;;10.18;9.48;;;;;;;20.15;63.46;100405.53;5069118;28;20417;-77
2022/09/01 04:32:02;;;;;;;10.80;10.02;;;;;;;20.29;63.21;100423.88;5080494;28;20503;-77
2022/09/01 04:34:35;;;;;;;10.95;10.25;;;;;;;20.19;63.40;100417.81;5070826;28;20044;-75
2022/09/01 04:37:19;;;;;;;11.40;10.57;;;;;;;20.03;63.23;100421.31;5066106;28;20094;-76
2022/09/01 04:39:51;;;;;;;10.60;9.65;;;;;;;19.90;63.87;100428.09;5066301;28;20048;-76
2022/09/01 04:42:27;;;;;;;10.80;10.02;;;;;;;19.79;64.02;100429.69;5070763;28;20117;-78
2022/09/01 04:44:56;;;;;;;10.88;10.07;;;;;;;19.68;64.52;100439.78;5068759;28;20045;-77
2022/09/01 04:47:28;;;;;;;12.65;11.60;;;;;;;19.62;64.21;100437.13;5071795;28;20044;-76
2022/09/01 04:50:11;;;;;;;11.20;10.40;;;;;;;19.59;64.58;100443.47;5073244;28;20055;-77
2022/09/01 04:52:40;;;;;;;11.18;10.07;;;;;;;19.57;64.39;100437.31;5075346;28;20091;-77
2022/09/01 04:55:16;;;;;;;12.50;11.48;;;;;;;19.32;64.65;100419.34;5076646;28;20431;-76
2022/09/01 04:57:48;;;;;;;11.57;10.68;;;;;;;19.62;64.20;100442.78;5073106;28;20048;-75
2022/09/01 05:00:24;;;;;;;11.98;10.80;;;;;;;19.63;64.10;100433.16;5074429;28;20044;-76
2022/09/01 05:03:03;;;;;;;11.27;10.45;;;;;;;19.80;63.76;100457.69;5073263;28;20133;-76
2022/09/01 05:05:38;;;;;;;10.77;9.98;;;;;;;19.85;63.69;100448.97;5066704;28;20094;-76
2022/09/01 05:08:10;;;;;;;11.32;10.52;;;;;;;19.76;63.78;100436.03;5071240;28;20079;-75
2022/09/01 05:10:43;;;;;;;10.98;10.18;;;;;;;19.73;63.85;100437.56;5070767;28;20469;-76
2022/09/01 05:13:12;;;;;;;11.23;10.38;;;;;;;19.83;63.33;100433.50;5070227;28;20084;-76
2022/09/01 05:15:45;;;;;;;11.63;10.83;;;;;;;19.85;63.39;100450.97;5067324;28;20129;-76
2022/09/01 05:18:22;;;;;;;11.90;10.98;;;;;;;19.72;63.38;100437.91;5073419;28;20102;-77
2022/09/01 05:20:51;;;;;;;11.77;10.77;;;;;;;19.71;63.42;100450.44;5069048;28;20135;-76
2022/09/01 05:23:19;;;;;;;12.52;11.32;;;;;;;19.64;63.37;100448.13;5080163;28;20135;-76
2022/09/01 05:25:53;;;;;;;11.73;10.93;;;;;;;19.39;63.49;100433.78;5071141;28;20156;-77
2022/09/01 05:28:24;;;;;;;11.88;11.05;;;;;;;19.56;63.51;100455.50;5085117;28;22216;-77
2022/09/01 05:30:53;;;;;;;11.57;10.85;;;;;;;19.47;63.59;100443.38;5081714;28;20056;-75
2022/09/01 05:33:20;;;;;;;11.65;10.85;;;;;;;19.28;63.67;100428.84;5065893;28;20060;-76
2022/09/01 05:36:00;;;;;;;11.57;10.88;;;;;;;19.32;63.62;100458.16;5070090;28;20048;-75
2022/09/01 05:38:29;;;;;;;12.18;11.18;;;;;;;19.04;64.30;100450.13;5065887;28;20101;-76
2022/09/01 05:41:03;;;;;;;12.63;11.80;;;;;;;19.07;63.95;100437.28;5047970;28;20124;-74
2022/09/01 05:43:31;;;;;;;11.95;11.13;;;;;;;19.13;64.38;100462.22;5061730;28;20128;-74
2022/09/01 05:46:03;;;;;;;12.07;11.27;;;;;;;18.98;64.83;100456.34;5071608;28;20075;-72
2022/09/01 05:48:38;;;;;;;14.65;13.50;;;;;;;18.99;64.47;100441.81;5070214;28;20189;-70
2022/09/01 05:51:07;;;;;;;13.32;12.23;;;;;;;19.26;63.98;100457.50;5065849;28;20048;-74
2022/09/01 05:53:57;;;;;;;13.07;12.15;;;;;;;19.17;64.09;100451.88;5061729;28;20058;-78
2022/09/01 05:56:27;;;;;;;12.32;11.43;;;;;;;19.23;64.10;100449.69;5069888;28;20382;-76
2022/09/01 05:58:54;;;;;;;15.38;14.27;;;;;;;19.25;63.79;100438.88;5072667;28;20068;-77
2022/09/01 06:01:41;;;;;;;13.73;12.80;;;;;;;19.35;64.26;100454.63;5065856;28;20052;-73
2022/09/01 06:04:15;;;;;;;13.70;12.43;;;;;;;19.27;64.54;100436.50;5073273;28;20432;-73
2022/09/01 06:06:45;;;;;;;13.40;12.23;;;;;;;19.37;64.59;100458.78;5071256;28;20113;-75
2022/09/01 06:09:36;;;;;;;13.90;12.75;;;;;;;19.09;64.37;100418.81;5066008;28;20048;-74
2022/09/01 06:12:05;;;;;;;13.00;12.20;;;;;;;19.30;64.22;100457.66;5064965;28;20084;-71
2022/09/01 06:14:33;;;;;;;13.38;12.48;;;;;;;18.88;64.07;100387.63;5069395;28;20044;-72
2022/09/01 06:17:01;;;;;;;13.13;12.30;;;;;;;19.39;64.15;100464.09;5062846;28;20076;-71
2022/09/01 06:19:29;;;;;;;15.68;14.60;;;;;;;19.35;64.15;100455.47;5064540;28;20072;-71
2022/09/01 06:22:03;;;;;;;13.23;12.25;;;;;;;19.23;63.81;100429.06;5063787;28;20158;-70
2022/09/01 06:24:29;;;;;;;12.98;12.07;;;;;;;19.52;63.89;100471.53;5069119;28;20202;-71
2022/09/01 06:26:58;;;;;;;13.65;12.75;;;;;;;19.39;63.89;100449.94;5063938;28;20135;-72
2022/09/01 06:29:25;;;;;;;15.85;14.82;;;;;;;19.49;64.18;100472.22;5068449;28;20057;-74
2022/09/01 06:31:52;;;;;;;13.07;12.27;;;;;;;19.47;64.36;100470.88;5069087;28;20080;-72
2022/09/01 06:34:19;;;;;;;13.45;12.57;;;;;;;19.57;64.43;100471.31;5065100;28;20135;-72
2022/09/01 06:36:49;;;;;;;11.85;11.15;;;;;;;19.65;63.99;100478.13;5063694;28;20076;-71
2022/09/01 06:39:19;;;;;;;14.65;13.40;;;;;;;19.59;64.24;100460.47;5064811;28;20624;-75
2022/09/01 06:41:48;;;;;;;13.32;12.38;;;;;;;19.75;64.07;100474.88;5061867;28;20072;-75
2022/09/01 06:44:21;;;;;;;13.63;12.65;;;;;;;19.65;63.90;100464.78;5067238;28;20135;-75
2022/09/01 06:46:49;;;;;;;16.30;15.32;;;;;;;19.83;63.90;100481.69;5063194;28;20052;-76
2022/09/01 06:49:16;;;;;;;16.73;14.70;;;;;;;19.80;63.76;100463.34;5060622;28;20560;-76
2022/09/01 06:51:43;;;;;;;13.48;12.23;;;;;;;19.81;63.79;100467.00;5066150;28;20151;-77
2022/09/01 06:54:13;;;;;;;13.30;12.48;;;;;;;19.93;63.30;100474.75;5068894;28;20575;-77
2022/09/01 06:56:40;;;;;;;13.02;12.13;;;;;;;19.88;63.49;100470.94;5066747;28;20576;-76
2022/09/01 06:59:17;;;;;;;12.13;11.23;;;;;;;19.90;63.54;100464.94;5065403;28;20055;-76
2022/09/01 07:01:44;;;;;;;12.88;11.90;;;;;;;20.16;63.79;100489.41;5066483;28;20143;-76
2022/09/01 07:04:11;;;;;;;12.95;11.85;;;;;;;20.09;63.52;100470.94;5065140;28;20440;-82
2022/09/01 07:06:40;;;;;;;13.68;12.63;;;;;;;20.26;63.24;100477.63;5065772;28;20067;-71
2022/09/01 07:09:28;;;;;;;15.52;14.23;;;;;;;20.44;63.07;100484.78;5064970;28;20123;-73
2022/09/01 07:12:13;;;;;;;12.65;11.60;;;;;;;20.58;63.26;100485.34;5071238;28;20060;-73
2022/09/01 07:14:57;;;;;;;13.38;12.20;;;;;;;20.94;62.96;100508.50;5071696;28;20463;-73
2022/09/01 07:17:51;;;;;;;12.25;11.43;;;;;;;21.22;62.41;100480.25;5065594;28;20048;-73
2022/09/01 07:20:24;;;;;;;12.32;11.52;;;;;;;21.74;61.66;100497.44;5063217;28;20390;-72
2022/09/01 07:23:10;;;;;;;11.25;10.52;;;;;;;21.95;61.00;100488.75;5066451;28;20049;-72
2022/09/01 07:25:40;;;;;;;11.80;11.00;;;;;;;22.12;60.53;100492.47;5069314;28;20408;-73
2022/09/01 07:28:31;;;;;;;12.13;11.05;;;;;;;22.36;60.59;100500.13;5069270;28;20067;-73
2022/09/01 07:31:07;;;;;;;12.02;11.18;;;;;;;22.39;60.05;100494.56;5069175;28;20051;-73
2022/09/01 07:33:57;;;;;;;12.10;11.10;;;;;;;22.25;60.19;100482.75;5068767;28;20044;-72
2022/09/01 07:36:46;;;;;;;11.80;11.00;;;;;;;22.39;59.96;100483.19;5066709;28;20048;-73
2022/09/01 07:39:32;;;;;;;11.88;11.07;;;;;;;22.86;59.32;100502.34;5065463;28;20053;-73
2022/09/01 07:42:18;;;;;;;12.48;11.43;;;;;;;23.31;58.59;100489.72;5068203;28;20049;-73
2022/09/01 07:45:07;;;;;;;12.38;11.27;;;;;;;23.34;58.35;100462.53;5070306;28;20493;-73
2022/09/01 07:48:00;;;;;;;11.68;11.00;;;;;;;23.64;57.96;100497.06;5080354;28;20049;-74
2022/09/01 07:50:29;;;;;;;13.55;12.75;;;;;;;23.74;57.30;100464.31;5069355;28;20419;-73
2022/09/01 07:53:18;;;;;;;13.18;12.18;;;;;;;24.19;56.58;100491.41;5058907;28;20062;-73
2022/09/01 07:55:45;;;;;;;;;;;;;;;24.14;57.16;100489.69;5069902;28;20048;-73
2022/09/01 07:58:13;;;;;;;12.48;11.45;;;;;;;24.40;56.05;100489.03;5081020;28;20092;-73
2022/09/01 08:00:43;;;;;;;11.38;10.65;;;;;;;24.60;55.47;100464.13;5061999;28;20884;-74
2022/09/01 08:03:10;;;;;;;12.25;11.35;;;;;;;24.93;55.12;100494.16;5063170;28;20416;-73
2022/09/01 08:05:37;;;;;;;10.75;10.02;;;;;;;25.23;54.72;100512.28;5065437;28;20052;-76
2022/09/01 08:08:04;;;;;;;11.02;10.25;;;;;;;25.46;54.12;100492.22;5064871;28;20058;-71
2022/09/01 08:10:45;;;;;;;11.15;10.35;;;;;;;25.49;53.63;100471.44;5066146;28;20473;-71
2022/09/01 08:13:16;;;;;;;11.63;10.82;;;;;;;25.99;53.04;100494.31;5067235;28;20573;-70
2022/09/01 08:15:47;;;;;;;11.48;10.75;;;;;;;26.26;52.26;100480.78;5067813;28;20044;-70
2022/09/01 08:18:34;;;;;;;10.48;9.70;;;;;;;26.45;51.95;100489.19;5066084;28;20053;-71
2022/09/01 08:21:20;;;;;;;11.35;10.40;;;;;;;26.60;51.42;100493.09;5068471;28;20056;-71
2022/09/01 08:23:52;;;;;;;9.52;8.88;;;;;;;26.67;50.96;100490.31;5069704;28;20086;-71
2022/09/01 08:26:21;;;;;;;9.57;8.95;;;;;;;26.51;51.40;100480.28;5061144;28;20459;-74
2022/09/01 08:28:49;;;;;;;12.02;11.32;;;;;;;26.43;50.89;100490.81;5066651;28;20139;-72
2022/09/01 08:31:24;;;;;;;10.50;9.57;;;;;;;26.32;50.91;100496.38;5064583;28;20102;-71
2022/09/01 08:33:55;;;;;;;10.80;9.88;;;;;;;26.37;50.57;100490.31;5065305;28;20048;-70
2022/09/01 08:36:22;;;;;;;10.65;9.85;;;;;;;26.38;50.51;100499.72;5068475;28;20074;-70
2022/09/01 08:38:52;;;;;;;9.63;9.02;;;;;;;26.74;49.92;100503.88;5068157;28;20416;-70
2022/09/01 08:41:49;;;;;;;11.40;10.70;;;;;;;27.33;49.13;100493.44;5066565;28;20131;-70
2022/09/01 08:44:57;;;;;;;11.88;10.90;;;;;;;27.79;48.59;100489.28;5066831;28;20139;-70
2022/09/01 08:47:25;;;;;;;11.30;10.50;;;;;;;27.85;48.11;100479.09;5044360;28;20126;-71
2022/09/01 08:50:11;;;;;;;10.40;9.80;;;;;;;27.95;47.85;100481.19;5066873;28;20048;-71
2022/09/01 08:52:43;;;;;;;11.65;10.75;;;;;;;27.92;47.49;100486.91;5065759;28;20059;-69
2022/09/01 08:55:30;;;;;;;10.68;9.98;;;;;;;27.93;47.20;100486.50;5062367;28;20512;-70
2022/09/01 08:57:59;;;;;;;9.95;9.35;;;;;;;28.39;46.53;100491.72;5061589;28;20118;-71
2022/09/01 09:00:29;;;;;;;10.23;9.40;;;;;;;28.70;46.08;100483.63;5067758;28;20132;-71
2022/09/01 09:03:31;;;;;;;10.52;9.93;;;;;;;28.46;46.34;100496.66;5069989;28;20123;-73
2022/09/01 09:06:25;;;;;;;10.40;9.80;;;;;;;28.33;45.98;100496.16;5059078;28;20063;-71
2022/09/01 09:09:07;;;;;;;10.43;9.48;;;;;;;27.94;46.46;100478.75;5067677;28;20487;-69
2022/09/01 09:11:33;;;;;;;12.00;11.30;;;;;;;27.88;46.42;100507.00;5069219;28;20147;-71
2022/09/01 09:14:20;;;;;;;10.68;10.02;;;;;;;27.57;46.55;100492.00;5064919;28;20179;-70
2022/09/01 09:16:52;;;;;;;10.13;9.43;;;;;;;27.52;46.31;100489.50;5068769;28;20455;-69
2022/09/01 09:19:33;;;;;;;10.25;9.32;;;;;;;27.36;46.47;100497.56;5067416;28;20400;-70
2022/09/01 09:22:04;;;;;;;12.13;11.13;;;;;;;26.72;46.76;100460.47;5063275;28;20045;-71
2022/09/01 09:24:51;;;;;;;10.07;9.48;;;;;;;26.74;47.05;100488.75;5064665;28;20087;-69
2022/09/01 09:27:24;;;;;;;10.20;9.50;;;;;;;26.81;47.01;100503.13;5062159;28;20143;-70
2022/09/01 09:30:00;;;;;;;9.88;9.27;;;;;;;26.84;46.81;100494.59;5070220;28;20055;-71
2022/09/01 09:32:48;;;;;;;9.50;8.90;;;;;;;26.65;47.23;100500.50;5068195;28;20060;-71
2022/09/01 09:35:44;;;;;;;10.05;9.43;;;;;;;26.83;47.29;100498.63;5064531;28;20483;-70
2022/09/01 09:38:31;;;;;;;9.07;8.45;;;;;;;27.12;46.49;100505.53;5065992;28;20053;-70
2022/09/01 09:41:05;;;;;;;9.27;8.57;;;;;;;26.94;46.58;100498.78;5068890;28;20516;-71
2022/09/01 09:44:02;;;;;;;9.02;8.38;;;;;;;26.55;46.96;100487.69;5062991;28;20516;-70
2022/09/01 09:46:38;;;;;;;9.27;8.73;;;;;;;26.22;47.02;100445.53;5062818;28;20044;-70
2022/09/01 09:49:07;;;;;;;12.05;11.18;;;;;;;26.61;47.05;100479.59;5068034;28;20044;-72
2022/09/01 09:51:35;;;;;;;9.27;8.75;;;;;;;26.84;46.38;100499.50;5075450;28;20056;-68
2022/09/01 09:54:25;;;;;;;8.57;8.02;;;;;;;26.70;46.61;100480.94;5063634;28;20527;-74
2022/09/01 09:57:07;;;;;;;9.80;9.10;;;;;;;26.84;46.50;100494.59;5062999;28;20054;-74
2022/09/01 09:59:38;;;;;;;9.63;8.93;;;;;;;26.93;46.03;100497.09;5062694;28;20186;-73
2022/09/01 10:02:27;;;;;;;10.63;9.82;;;;;;;26.93;46.01;100482.78;5067811;28;20054;-80
2022/09/01 10:04:54;;;;;;;;;;;;;;;27.03;46.76;100492.72;5063840;28;20134;-67
2022/09/01 10:07:31;;;;;;;9.60;9.00;;;;;;;27.12;45.86;100473.16;5070500;28;19943;-66
2022/09/01 10:10:03;;;;;;;10.25;9.50;;;;;;;27.26;45.66;100481.91;5067886;28;20491;-67
2022/09/01 10:12:32;;;;;;;10.60;9.80;;;;;;;27.54;45.44;100491.97;5061343;28;20087;-67
2022/09/01 10:15:08;;;;;;;10.25;9.55;;;;;;;28.32;44.73;100458.00;5064182;28;20056;-67
2022/09/01 10:17:42;;;;;;;10.65;9.95;;;;;;;29.46;43.35;100470.97;5068675;28;20060;-69
2022/09/01 10:20:17;;;;;;;10.52;9.77;;;;;;;30.27;42.18;100469.22;5061946;28;20053;-69
2022/09/01 10:22:45;;;;;;;9.63;9.02;;;;;;;31.02;40.65;100465.94;5041947;28;20080;-69
2022/09/01 10:25:25;;;;;;;10.57;9.70;;;;;;;31.84;39.97;100470.19;5064961;28;20268;-71
2022/09/01 10:28:08;;;;;;;10.40;9.88;;;;;;;32.44;39.09;100450.53;5061512;28;20438;-71
2022/09/01 10:30:41;;;;;;;11.93;11.15;;;;;;;32.91;38.28;100468.06;5063128;28;20079;-69
2022/09/01 10:33:09;;;;;;;11.73;11.13;;;;;;;33.16;37.46;100456.91;5061908;28;20049;-71
2022/09/01 10:35:48;;;;;;;10.10;9.30;;;;;;;33.53;36.88;100452.19;5064711;28;20191;-70
2022/09/01 10:38:27;;;;;;;10.18;9.52;;;;;;;33.93;36.61;100449.38;5060390;28;20075;-70
2022/09/01 10:41:09;;;;;;;10.73;9.93;;;;;;;34.27;35.60;100448.31;5065282;28;20052;-71
2022/09/01 10:43:44;;;;;;;9.77;9.00;;;;;;;34.49;35.68;100440.78;5066424;28;20053;-70
2022/09/01 10:46:19;;;;;;;10.27;9.68;;;;;;;34.55;35.41;100452.69;5063495;28;20141;-70
2022/09/01 10:49:21;;;;;;;10.95;10.25;;;;;;;34.52;35.49;100442.00;5063090;28;20044;-70
2022/09/01 10:51:55;;;;;;;9.82;9.23;;;;;;;34.46;35.20;100441.66;5062899;28;20054;-70
2022/09/01 10:54:38;;;;;;;10.60;9.90;;;;;;;34.43;35.20;100445.47;5064633;28;20048;-69
2022/09/01 10:57:41;;;;;;;10.37;9.53;;;;;;;34.33;35.34;100434.94;5064876;28;20044;-72
2022/09/01 11:00:28;;;;;;;10.85;10.05;;;;;;;34.43;35.23;100422.28;5062870;28;20141;-73
2022/09/01 11:03:12;;;;;;;10.75;9.95;;;;;;;35.36;33.90;100437.50;5054110;28;20052;-70
2022/09/01 11:06:08;;;;;;;9.85;9.18;;;;;;;36.13;32.76;100421.31;5064115;28;20394;-72
2022/09/01 11:08:42;;;;;;;11.95;11.23;;;;;;;36.78;31.78;100447.16;5066277;28;20059;-73
2022/09/01 11:11:49;;;;;;;10.00;9.50;;;;;;;36.37;32.83;100435.56;5061916;28;20579;-70
2022/09/01 11:14:21;;;;;;;9.93;9.38;;;;;;;35.82;32.86;100418.03;5058174;28;23075;-69
2022/09/01 11:17:12;;;;;;;11.50;10.80;;;;;;;35.25;33.49;100436.94;5061200;28;20053;-72
2022/09/01 11:19:46;;;;;;;10.00;9.50;;;;;;;34.91;33.61;100426.59;5065627;28;20083;-70
2022/09/01 11:22:43;;;;;;;12.02;11.35;;;;;;;34.69;34.19;100434.16;5069230;28;20059;-68
2022/09/01 11:25:13;;;;;;;10.25;9.65;;;;;;;34.56;34.10;100437.75;5058602;28;20052;-65
2022/09/01 11:27:49;;;;;;;9.98;9.48;;;;;;;34.69;33.77;100423.38;5065132;28;20048;-67
2022/09/01 11:30:44;;;;;;;10.55;9.95;;;;;;;34.71;33.63;100425.84;5065209;28;20123;-69
2022/09/01 11:33:11;;;;;;;10.02;9.43;;;;;;;34.72;33.68;100425.38;5062702;28;20056;-68
2022/09/01 11:35:38;;;;;;;10.07;9.38;;;;;;;34.72;33.17;100427.47;5062716;28;20140;-67
2022/09/01 11:38:07;;;;;;;9.93;9.27;;;;;;;34.87;33.02;100420.88;5065649;28;20524;-67
2022/09/01 11:40:35;;;;;;;10.32;9.73;;;;;;;34.95;32.70;100415.72;5058577;28;22724;-68
2022/09/01 11:43:09;;;;;;;11.88;11.27;;;;;;;35.11;32.71;100409.09;5059848;28;20056;-70
2022/09/01 11:45:52;;;;;;;9.60;9.00;;;;;;;35.20;32.38;100399.78;5066279;28;20055;-75
2022/09/01 11:48:19;;;;;;;9.50;8.90;;;;;;;35.62;32.01;100414.44;5065504;28;20048;-70
2022/09/01 11:50:58;;;;;;;10.30;9.68;;;;;;;35.81;31.34;100419.31;5059174;28;20592;-72